Time;durP1;ratioP1;P1;durP2;ratioP2;P2;SDS_P1;SDS_P2;PMS_P1;PMS_P2;Temp;Humidity;BMP_temperature;BMP_pressure;BME280_temperature;BME280_humidity;BME280_pressure;Samples;Min_cycle;Max_cycle;Signal;HPM_P1;HPM_P2
2021/10/20 00:01:07;;;;;;;;;9.25;8.75;;;;;18.20;64.55;101200.09;5034235;28;45499;-73
2021/10/20 00:03:34;;;;;;;;;10.50;10.50;;;;;18.19;64.61;101201.06;5033237;28;45437;-73
2021/10/20 00:06:00;;;;;;;;;8.50;8.50;;;;;18.18;64.44;101205.53;5033850;28;45372;-73
2021/10/20 00:08:26;;;;;;;;;9.75;7.50;;;;;18.17;65.03;101209.16;5033591;28;45331;-73
2021/10/20 00:10:52;;;;;;;;;9.00;9.00;;;;;18.16;65.04;101210.09;5033524;28;45418;-73
2021/10/20 00:13:18;;;;;;;;;11.75;10.50;;;;;18.15;65.09;101210.19;5033929;28;46015;-73
2021/10/20 00:15:44;;;;;;;;;10.50;8.00;;;;;18.10;64.81;101199.84;5033632;28;45566;-73
2021/10/20 00:18:09;;;;;;;;;8.25;7.50;;;;;18.13;65.18;101201.47;5015374;28;45676;-73
2021/10/20 00:20:35;;;;;;;;;9.50;8.75;;;;;18.11;64.83;101200.72;5033839;28;45648;-73
2021/10/20 00:23:00;;;;;;;;;8.25;8.25;;;;;18.04;65.13;101196.78;5016272;28;46991;-73
2021/10/20 00:25:25;;;;;;;;;10.50;10.00;;;;;18.08;65.62;101198.28;5033576;28;45402;-73
2021/10/20 00:27:51;;;;;;;;;10.00;7.75;;;;;18.07;65.60;101193.91;5034467;28;45414;-73
2021/10/20 00:30:17;;;;;;;;;10.00;8.50;;;;;17.96;65.52;101182.19;5033392;28;45400;-73
2021/10/20 00:32:46;;;;;;;;;10.50;10.00;;;;;18.04;65.35;101191.44;5032862;28;46155;-73
2021/10/20 00:35:11;;;;;;;;;11.00;9.00;;;;;17.99;65.42;101178.47;5028492;28;45489;-73
2021/10/20 00:37:37;;;;;;;;;10.00;10.00;;;;;17.98;65.54;101184.72;5033403;28;45416;-73
2021/10/20 00:40:04;;;;;;;;;13.25;10.25;;;;;17.95;66.06;101175.13;5034222;28;45491;-73
2021/10/20 00:42:29;;;;;;;;;9.50;8.75;;;;;17.85;65.56;101166.06;5032766;28;47748;-73
2021/10/20 00:45:01;;;;;;;;;11.75;10.00;;;;;17.90;65.57;101168.44;5032660;28;45463;-73
2021/10/20 00:47:28;;;;;;;;;9.75;9.00;;;;;17.88;65.85;101173.00;5033563;28;45494;-73
2021/10/20 00:49:54;;;;;;;;;10.25;9.00;;;;;17.87;66.08;101172.16;5033904;28;47673;-73
2021/10/20 00:52:21;;;;;;;;;10.00;9.75;;;;;17.81;66.07;101161.94;5033497;28;45439;-73
2021/10/20 00:54:47;;;;;;;;;12.50;10.00;;;;;17.74;66.17;101150.84;5031426;28;45714;-73
2021/10/20 00:57:15;;;;;;;;;8.50;8.50;;;;;17.81;66.12;101148.63;5033565;28;45687;-73
2021/10/20 00:59:41;;;;;;;;;9.50;8.50;;;;;17.80;66.42;101151.38;5036516;28;45489;-73
2021/10/20 01:02:08;;;;;;;;;10.00;9.25;;;;;17.78;66.63;101154.16;5037094;28;46601;-73
2021/10/20 01:04:34;;;;;;;;;9.50;8.75;;;;;17.79;66.53;101144.38;5036058;28;45520;-73
2021/10/20 01:07:00;;;;;;;;;11.25;8.50;;;;;17.75;66.73;101135.75;5035317;28;45531;-73
2021/10/20 01:09:26;;;;;;;;;9.50;9.50;;;;;17.77;66.70;101130.34;5036444;28;45658;-73
2021/10/20 01:11:53;;;;;;;;;10.75;10.00;;;;;17.68;66.76;101121.13;5036110;28;45498;-73
2021/10/20 01:14:20;;;;;;;;;12.75;11.25;;;;;17.71;67.04;101131.56;5036035;28;45877;-73
2021/10/20 01:16:46;;;;;;;;;13.50;9.50;;;;;17.65;66.75;101126.66;5036854;28;45553;-73
2021/10/20 01:19:13;;;;;;;;;9.25;9.00;;;;;17.61;67.37;101126.00;5036568;28;45488;-73
2021/10/20 01:21:39;;;;;;;;;10.50;9.50;;;;;17.68;66.95;101137.91;5035321;28;45357;-73
2021/10/20 01:24:06;;;;;;;;;12.00;10.00;;;;;17.52;66.83;101104.50;5035751;28;45463;-73
2021/10/20 01:26:31;;;;;;;;;11.25;10.75;;;;;17.66;67.23;101129.22;5035475;28;45447;-73
2021/10/20 01:28:56;;;;;;;;;11.75;10.50;;;;;17.67;67.51;101122.94;5036051;28;45332;-73
2021/10/20 01:31:22;;;;;;;;;12.50;11.00;;;;;17.66;67.15;101113.25;5036175;28;46034;-73
2021/10/20 01:33:47;;;;;;;;;9.75;9.25;;;;;17.62;67.54;101111.75;5035726;28;45502;-73
2021/10/20 01:36:13;;;;;;;;;10.50;10.00;;;;;17.64;67.28;101114.31;5035108;28;45608;-73
2021/10/20 01:38:39;;;;;;;;;14.00;11.25;;;;;17.60;67.30;101105.69;5035990;28;45743;-73
2021/10/20 01:41:04;;;;;;;;;10.25;10.00;;;;;17.58;67.30;101110.25;5036135;28;45398;-73
2021/10/20 01:43:45;;;;;;;;;10.25;9.00;;;;;17.56;67.68;101106.00;5035754;28;45309;-73
2021/10/20 01:46:12;;;;;;;;;9.00;8.00;;;;;17.52;67.60;101105.34;5036506;28;45402;-73
2021/10/20 01:48:38;;;;;;;;;10.75;10.75;;;;;17.47;68.20;101094.16;5036229;28;46791;-73
2021/10/20 01:51:03;;;;;;;;;13.50;11.00;;;;;17.34;68.22;101083.50;5035459;28;46322;-73
2021/10/20 01:53:29;;;;;;;;;10.00;9.00;;;;;17.42;68.49;101096.28;5036040;28;45496;-73
2021/10/20 01:55:54;;;;;;;;;13.00;9.00;;;;;17.41;68.56;101084.78;5035724;28;45371;-73
2021/10/20 01:58:20;;;;;;;;;13.25;11.50;;;;;17.36;68.48;101073.63;5034872;28;48607;-73
2021/10/20 02:00:45;;;;;;;;;11.25;9.00;;;;;17.40;68.72;101072.47;5018454;28;45360;-73
2021/10/20 02:03:11;;;;;;;;;12.00;10.25;;;;;17.39;68.54;101073.44;5035181;28;45345;-73
2021/10/20 02:05:36;;;;;;;;;10.00;9.50;;;;;17.37;68.78;101067.34;5034574;28;45419;-73
2021/10/20 02:08:03;;;;;;;;;13.00;11.00;;;;;17.34;68.83;101050.78;5035348;28;45357;-73
2021/10/20 02:10:29;;;;;;;;;11.50;11.25;;;;;17.42;69.40;101054.59;5035308;28;46381;-73
2021/10/20 02:12:55;;;;;;;;;11.75;11.00;;;;;17.41;69.23;101038.78;5036238;28;45432;-73
2021/10/20 02:15:20;;;;;;;;;13.25;11.75;;;;;17.46;69.10;101045.50;5035445;28;45435;-73
2021/10/20 02:17:46;;;;;;;;;13.00;12.00;;;;;17.48;68.81;101038.25;5035456;28;45680;-73
2021/10/20 02:20:13;;;;;;;;;12.75;11.50;;;;;17.48;68.84;101037.41;5035451;28;46840;-73
2021/10/20 02:22:40;;;;;;;;;13.50;11.50;;;;;17.46;69.14;101040.19;5035125;28;45493;-73
2021/10/20 02:25:06;;;;;;;;;15.25;12.75;;;;;17.47;69.45;101031.25;5035652;28;45427;-73
2021/10/20 02:27:32;;;;;;;;;9.75;8.00;;;;;17.46;69.10;101034.84;5034649;28;45483;-73
2021/10/20 02:29:58;;;;;;;;;10.75;10.75;;;;;17.48;69.58;101029.44;5035174;28;45598;-73
2021/10/20 02:32:23;;;;;;;;;12.75;11.75;;;;;17.45;69.42;101019.88;5034281;28;45535;-73
2021/10/20 02:34:48;;;;;;;;;13.25;10.50;;;;;17.48;69.47;101014.34;5035209;28;45412;-73
2021/10/20 02:37:14;;;;;;;;;13.00;13.00;;;;;17.47;69.39;101003.81;5035997;28;45280;-73
2021/10/20 02:39:40;;;;;;;;;12.00;10.00;;;;;17.45;69.68;101006.59;5034945;28;47627;-73
2021/10/20 02:42:05;;;;;;;;;13.25;11.25;;;;;17.54;69.21;101004.25;5034448;28;45396;-73
2021/10/20 02:44:30;;;;;;;;;12.25;10.25;;;;;17.50;69.57;100981.53;5035499;28;45527;-73
2021/10/20 02:46:56;;;;;;;;;11.00;10.00;;;;;17.58;69.55;100989.81;5034968;28;45403;-73
2021/10/20 02:49:21;;;;;;;;;13.00;12.50;;;;;17.54;69.55;100983.88;5035142;28;45539;-73
2021/10/20 02:51:47;;;;;;;;;12.00;10.75;;;;;17.57;69.28;100991.63;5035893;28;45361;-73
2021/10/20 02:54:12;;;;;;;;;12.75;10.50;;;;;17.48;69.51;100960.34;5033841;28;45357;-73
2021/10/20 02:56:37;;;;;;;;;13.25;13.25;;;;;17.56;69.29;100976.63;5034756;28;45396;-73
2021/10/20 02:59:03;;;;;;;;;12.00;11.00;;;;;17.48;69.55;100981.59;5034509;28;46308;-73
2021/10/20 03:01:28;;;;;;;;;9.00;9.00;;;;;17.53;69.57;100974.16;5038278;28;45358;-73
2021/10/20 03:03:53;;;;;;;;;13.00;11.00;;;;;17.48;69.55;100957.69;5034456;28;45416;-73
2021/10/20 03:06:19;;;;;;;;;12.00;12.00;;;;;17.57;69.40;100956.22;5033520;28;45477;-73
2021/10/20 03:08:45;;;;;;;;;11.50;10.25;;;;;17.55;69.81;100951.03;5033388;28;45555;-73
2021/10/20 03:11:11;;;;;;;;;15.75;13.25;;;;;17.55;69.08;100950.19;5034015;28;45458;-73
2021/10/20 03:13:36;;;;;;;;;10.50;10.50;;;;;17.52;69.75;100953.03;5033994;28;45466;-72
2021/10/20 03:16:01;;;;;;;;;15.50;11.50;;;;;17.50;69.58;100955.81;5033941;28;45598;-73
2021/10/20 03:18:27;;;;;;;;;13.00;11.00;;;;;17.47;69.67;100954.19;5032263;28;45495;-73
2021/10/20 03:20:52;;;;;;;;;16.50;12.00;;;;;17.46;69.54;100960.47;5032664;28;45451;-74
2021/10/20 03:23:17;;;;;;;;;13.75;11.25;;;;;17.31;69.60;100956.19;5033223;28;45459;-74
2021/10/20 03:25:43;;;;;;;;;11.75;11.00;;;;;17.37;69.81;100979.69;5034280;28;45175;-73
2021/10/20 03:28:08;;;;;;;;;16.25;11.50;;;;;17.28;69.92;100964.38;5034489;28;45272;-72
2021/10/20 03:30:34;;;;;;;;;10.00;8.50;;;;;17.33;69.93;100983.53;5035743;28;45343;-72
2021/10/20 03:32:59;;;;;;;;;14.00;12.75;;;;;17.31;70.07;100982.75;5037712;28;45589;-72
2021/10/20 03:35:24;;;;;;;;;12.75;12.00;;;;;17.26;70.24;100971.59;5033635;28;54263;-72
2021/10/20 03:37:50;;;;;;;;;13.00;11.75;;;;;17.24;69.76;100973.50;5033093;28;45550;-72
2021/10/20 03:40:15;;;;;;;;;12.00;9.25;;;;;17.26;70.16;100966.28;5034720;28;45427;-72
2021/10/20 03:42:41;;;;;;;;;11.50;11.50;;;;;17.25;69.97;100961.91;5034610;28;45470;-72
2021/10/20 03:45:07;;;;;;;;;9.50;9.00;;;;;17.22;69.79;100951.50;5034064;28;45489;-72
2021/10/20 03:47:33;;;;;;;;;12.00;10.00;;;;;17.18;69.97;100952.66;5034105;28;46312;-72
2021/10/20 03:49:58;;;;;;;;;15.00;9.00;;;;;17.19;70.29;100963.19;5039201;28;45630;-72
2021/10/20 03:52:24;;;;;;;;;11.50;10.75;;;;;17.13;70.37;100946.81;5037244;28;45694;-73
2021/10/20 03:54:49;;;;;;;;;16.00;11.50;;;;;17.20;70.41;100967.53;5034230;28;45682;-73
2021/10/20 03:57:15;;;;;;;;;12.00;10.50;;;;;17.10;70.36;100945.19;5033614;28;45714;-73
2021/10/20 03:59:43;;;;;;;;;12.50;12.25;;;;;17.06;69.69;100932.22;5036133;28;45425;-72
2021/10/20 04:02:08;;;;;;;;;14.75;12.75;;;;;17.14;70.36;100956.47;5032744;28;45558;-73
2021/10/20 04:04:33;;;;;;;;;13.50;13.00;;;;;17.14;70.62;100956.47;5033998;28;45988;-73
2021/10/20 04:06:59;;;;;;;;;12.50;11.75;;;;;17.11;70.57;100949.56;5034006;28;45461;-72
2021/10/20 04:09:24;;;;;;;;;11.00;11.00;;;;;17.10;70.53;100961.13;5033104;28;49877;-73
2021/10/20 04:11:49;;;;;;;;;10.25;10.25;;;;;17.06;70.43;100950.81;5033620;28;49132;-73
2021/10/20 04:14:15;;;;;;;;;14.25;10.50;;;;;17.05;70.69;100954.44;5032696;28;49808;-72
2021/10/20 04:16:40;;;;;;;;;17.50;12.25;;;;;17.05;70.68;100947.31;5033123;28;46183;-73
2021/10/20 04:19:05;;;;;;;;;11.50;10.75;;;;;17.07;70.39;100931.28;5036272;28;45704;-73
2021/10/20 04:21:31;;;;;;;;;12.25;11.75;;;;;17.08;70.28;100920.56;5041135;28;45466;-73
2021/10/20 04:23:56;;;;;;;;;12.00;10.50;;;;;16.98;70.18;100903.56;5037369;28;45395;-72
2021/10/20 04:26:22;;;;;;;;;13.25;12.50;;;;;17.01;70.26;100892.72;5033501;28;45657;-72
2021/10/20 04:28:47;;;;;;;;;12.00;10.00;;;;;17.06;70.75;100910.97;5032436;28;46135;-72
2021/10/20 04:31:13;;;;;;;;;12.00;12.00;;;;;17.04;70.11;100913.75;5035279;28;45737;-73
2021/10/20 04:33:39;;;;;;;;;11.75;10.50;;;;;17.02;70.80;100904.16;5035767;28;45559;-73
2021/10/20 04:36:04;;;;;;;;;13.00;13.00;;;;;17.02;70.69;100907.72;5036592;28;46024;-73
2021/10/20 04:38:29;;;;;;;;;10.25;8.75;;;;;16.97;70.91;100898.34;5036702;28;45380;-72
2021/10/20 04:40:55;;;;;;;;;13.00;12.75;;;;;16.97;70.69;100904.50;5037485;28;45478;-73
2021/10/20 04:43:20;;;;;;;;;14.50;13.50;;;;;16.98;70.69;100900.91;5035812;28;45418;-72
2021/10/20 04:45:46;;;;;;;;;13.00;12.25;;;;;16.95;71.15;100893.13;5036690;28;48611;-73
2021/10/20 04:48:11;;;;;;;;;12.00;12.00;;;;;16.94;71.28;100880.81;5036836;28;45263;-72
2021/10/20 04:50:36;;;;;;;;;11.00;10.50;;;;;16.98;70.58;100906.19;5036150;28;45350;-73
2021/10/20 04:53:03;;;;;;;;;12.25;11.25;;;;;17.01;71.01;100926.38;5036383;28;47687;-73
2021/10/20 04:55:28;;;;;;;;;9.00;9.00;;;;;17.01;70.82;100918.41;5039896;28;46007;-73
2021/10/20 04:57:54;;;;;;;;;11.00;10.00;;;;;17.00;70.82;100922.03;5037138;28;45355;-73
2021/10/20 05:00:22;;;;;;;;;13.75;13.50;;;;;17.00;70.90;100924.69;5036026;28;45362;-72
2021/10/20 05:02:47;;;;;;;;;14.00;12.00;;;;;17.01;70.93;100923.72;5037178;28;45510;-73
2021/10/20 05:05:13;;;;;;;;;17.25;12.75;;;;;17.01;70.65;100923.72;5034933;28;45847;-72
2021/10/20 05:07:56;;;;;;;;;13.00;10.75;;;;;17.02;71.32;100936.03;5019534;28;45576;-72
2021/10/20 05:10:23;;;;;;;;;11.25;8.75;;;;;16.69;70.90;100874.44;5040423;28;46712;-73
2021/10/20 05:12:49;;;;;;;;;12.50;10.50;;;;;17.04;71.13;100928.84;5034744;28;45385;-73
2021/10/20 05:15:15;;;;;;;;;12.50;12.00;;;;;16.99;70.94;100922.97;5036481;28;46008;-72
2021/10/20 05:17:42;;;;;;;;;17.75;12.50;;;;;17.02;71.30;100920.97;5036658;28;45888;-73
2021/10/20 05:20:09;;;;;;;;;12.50;12.50;;;;;17.01;70.91;100907.78;5035239;28;45459;-73
2021/10/20 05:22:39;;;;;;;;;14.75;13.00;;;;;17.11;71.09;100917.69;5035531;28;45594;-72
2021/10/20 05:25:07;;;;;;;;;14.25;12.75;;;;;17.11;71.07;100909.72;5032214;28;46188;-72
2021/10/20 05:27:33;;;;;;;;;15.75;15.50;;;;;17.16;70.81;100909.41;5035190;28;45491;-72
2021/10/20 05:29:59;;;;;;;;;14.00;13.50;;;;;17.13;71.08;100910.47;5036255;28;45471;-73
2021/10/20 05:32:25;;;;;;;;;10.25;9.75;;;;;17.14;71.12;100908.69;5007075;28;45592;-72
2021/10/20 05:34:51;;;;;;;;;14.75;12.75;;;;;17.13;70.86;100904.31;5036165;28;46281;-72
2021/10/20 05:37:16;;;;;;;;;15.00;11.25;;;;;17.07;70.99;100883.47;5018022;28;45604;-72
2021/10/20 05:39:41;;;;;;;;;18.25;14.00;;;;;17.10;70.91;100886.78;5036259;28;45659;-72
2021/10/20 05:42:07;;;;;;;;;12.00;12.00;;;;;17.10;70.90;100880.63;5035820;28;45455;-72
2021/10/20 05:44:32;;;;;;;;;19.25;13.50;;;;;17.13;71.03;100877.78;5035254;28;46030;-72
2021/10/20 05:46:57;;;;;;;;;13.25;11.75;;;;;17.14;70.96;100868.84;5036116;28;45428;-72
2021/10/20 05:49:23;;;;;;;;;16.50;13.25;;;;;17.12;71.03;100868.97;5035267;28;45363;-72
2021/10/20 05:51:48;;;;;;;;;12.50;12.50;;;;;17.07;71.26;100839.22;5036681;28;45383;-72
2021/10/20 05:54:13;;;;;;;;;11.00;10.50;;;;;17.09;71.15;100842.59;5034936;28;46195;-73
2021/10/20 05:56:39;;;;;;;;;14.00;13.50;;;;;17.14;71.49;100847.59;5017225;28;45447;-72
2021/10/20 05:59:04;;;;;;;;;17.00;12.75;;;;;17.04;71.10;100830.59;5035737;28;45572;-72
2021/10/20 06:01:31;;;;;;;;;12.25;11.00;;;;;17.15;70.99;100842.19;5035933;28;45410;-72
2021/10/20 06:03:57;;;;;;;;;14.75;12.75;;;;;17.14;71.32;100835.16;5035552;28;45571;-73
2021/10/20 06:06:22;;;;;;;;;13.50;12.50;;;;;17.12;71.10;100839.75;5035838;28;45647;-73
2021/10/20 06:08:47;;;;;;;;;14.25;11.00;;;;;17.16;71.31;100845.69;5017144;28;46060;-74
2021/10/20 06:11:13;;;;;;;;;11.00;11.00;;;;;17.17;71.06;100852.69;5035771;28;45402;-73
2021/10/20 06:13:38;;;;;;;;;14.75;12.25;;;;;17.12;71.19;100838.88;5016938;28;50903;-74
2021/10/20 06:16:04;;;;;;;;;13.75;12.50;;;;;17.16;71.16;100840.38;5031039;28;45637;-75
2021/10/20 06:18:29;;;;;;;;;12.50;12.50;;;;;17.18;71.56;100843.78;5034708;28;45484;-73
2021/10/20 06:20:55;;;;;;;;;12.50;11.75;;;;;17.18;71.78;100839.31;5035175;28;45487;-76
2021/10/20 06:23:21;;;;;;;;;10.25;10.00;;;;;17.19;71.37;100834.84;5034641;28;45307;-74
2021/10/20 06:25:46;;;;;;;;;11.25;11.00;;;;;17.19;71.45;100813.59;5034867;28;45528;-74
2021/10/20 06:28:12;;;;;;;;;14.00;12.00;;;;;17.17;71.62;100799.56;5035314;28;45446;-74
2021/10/20 06:30:37;;;;;;;;;13.25;12.50;;;;;17.23;71.51;100801.81;5034668;28;45261;-74
2021/10/20 06:33:02;;;;;;;;;16.50;15.50;;;;;17.24;71.43;100792.91;5034527;28;46101;-74
2021/10/20 06:35:28;;;;;;;;;14.25;12.50;;;;;17.27;71.50;100789.16;5035044;28;45477;-74
2021/10/20 06:37:54;;;;;;;;;13.00;11.25;;;;;17.26;71.49;100792.78;5035286;28;45380;-74
2021/10/20 06:40:20;;;;;;;;;13.75;11.25;;;;;17.26;71.50;100795.44;5034431;28;45621;-73
2021/10/20 06:42:45;;;;;;;;;14.00;11.50;;;;;17.29;71.78;100813.81;5035317;28;45465;-74
2021/10/20 06:45:10;;;;;;;;;12.50;12.50;;;;;17.29;71.50;100812.00;5033540;28;45590;-74
2021/10/20 06:47:36;;;;;;;;;15.75;12.25;;;;;17.31;71.55;100810.09;5034175;28;45430;-74
2021/10/20 06:50:03;;;;;;;;;13.50;12.25;;;;;17.33;71.56;100812.63;5034876;28;45364;-74
2021/10/20 06:52:28;;;;;;;;;13.25;10.50;;;;;17.32;71.53;100805.63;5034570;28;45552;-74
2021/10/20 06:54:54;;;;;;;;;17.25;15.00;;;;;17.33;71.69;100805.53;5037557;28;51753;-74
2021/10/20 06:57:19;;;;;;;;;13.00;11.50;;;;;17.28;72.01;100799.69;5041249;28;45476;-73
2021/10/20 06:59:45;;;;;;;;;12.75;12.00;;;;;17.36;72.61;100799.16;5044502;28;45546;-77
2021/10/20 07:02:10;;;;;;;;;16.75;15.00;;;;;17.33;72.41;100789.59;5041966;28;46049;-74
2021/10/20 07:04:35;;;;;;;;;14.75;11.75;;;;;17.31;72.50;100780.88;5036959;28;45628;-74
2021/10/20 07:07:01;;;;;;;;;15.25;13.00;;;;;17.36;73.06;100791.19;5022652;28;46238;-73
2021/10/20 07:09:26;;;;;;;;;16.25;12.00;;;;;17.33;73.35;100794.91;5041021;28;45490;-74
2021/10/20 07:11:52;;;;;;;;;13.50;11.00;;;;;17.32;73.06;100776.41;5037756;28;45496;-74
2021/10/20 07:14:17;;;;;;;;;14.50;12.25;;;;;17.24;72.56;100758.38;5038232;28;45659;-73
2021/10/20 07:16:43;;;;;;;;;15.75;13.50;;;;;17.27;73.26;100776.72;5035258;28;45454;-73
2021/10/20 07:19:08;;;;;;;;;13.25;13.25;;;;;17.27;74.08;100787.34;5038791;28;45619;-73
2021/10/20 07:21:35;;;;;;;;;15.00;12.75;;;;;17.26;73.72;100777.69;5046470;28;45511;-73
2021/10/20 07:24:01;;;;;;;;;12.50;12.25;;;;;17.04;74.11;100738.50;5042856;28;45282;-74
2021/10/20 07:26:26;;;;;;;;;18.50;11.50;;;;;17.22;74.60;100773.53;5037660;28;45633;-73
2021/10/20 07:28:52;;;;;;;;;17.75;13.25;;;;;17.20;74.27;100772.81;5035194;28;45414;-73
2021/10/20 07:31:17;;;;;;;;;12.50;12.50;;;;;17.17;74.57;100755.31;5036569;28;46085;-73
2021/10/20 07:33:43;;;;;;;;;12.75;12.25;;;;;17.15;74.68;100759.00;5038978;28;45388;-73
2021/10/20 07:36:08;;;;;;;;;12.25;12.25;;;;;17.13;74.55;100756.47;5040368;28;45519;-73
2021/10/20 07:38:33;;;;;;;;;14.25;12.50;;;;;17.12;74.73;100752.13;5036504;28;45476;-73
2021/10/20 07:40:59;;;;;;;;;15.50;13.50;;;;;17.09;75.29;100747.00;5031252;28;46205;-73
2021/10/20 07:43:24;;;;;;;;;16.00;12.75;;;;;17.04;75.74;100748.28;5041541;28;45617;-73
2021/10/20 07:45:50;;;;;;;;;16.75;15.50;;;;;17.07;75.78;100756.91;5038786;28;45413;-73
2021/10/20 07:48:15;;;;;;;;;18.25;14.75;;;;;17.14;75.46;100779.41;5036698;28;45552;-73
2021/10/20 07:50:42;;;;;;;;;18.75;14.00;;;;;17.08;75.89;100763.91;5037677;28;46272;-74
2021/10/20 07:53:08;;;;;;;;;21.25;15.00;;;;;17.16;75.98;100781.94;5044668;28;45494;-73
2021/10/20 07:55:34;;;;;;;;;13.00;10.25;;;;;17.14;75.86;100779.41;5034516;28;45363;-73
2021/10/20 07:58:00;;;;;;;;;17.25;16.75;;;;;17.08;75.80;100763.06;5037951;28;45552;-73
2021/10/20 08:00:25;;;;;;;;;12.50;12.25;;;;;17.15;76.30;100780.25;5046802;28;46546;-72
2021/10/20 08:02:51;;;;;;;;;15.50;13.25;;;;;17.18;76.12;100799.47;5036398;28;45448;-72
2021/10/20 08:05:17;;;;;;;;;15.75;15.50;;;;;17.00;76.08;100776.84;5040151;28;45550;-73
2021/10/20 08:07:44;;;;;;;;;13.25;12.50;;;;;17.20;76.60;100804.69;5049194;28;45294;-72
2021/10/20 08:10:15;;;;;;;;;14.75;13.00;;;;;17.20;77.18;100794.06;5042299;28;47191;-72
2021/10/20 08:12:41;;;;;;;;;15.25;14.75;;;;;17.25;76.88;100797.25;5035019;28;45491;-73
2021/10/20 08:15:08;;;;;;;;;15.00;15.00;;;;;17.23;77.13;100791.19;5040851;28;45576;-73
2021/10/20 08:17:33;;;;;;;;;16.50;14.75;;;;;17.16;76.55;100777.47;5035083;28;45540;-72
2021/10/20 08:19:59;;;;;;;;;20.00;14.00;;;;;17.18;77.55;100780.06;5035899;28;46018;-73
2021/10/20 08:22:24;;;;;;;;;20.75;14.75;;;;;17.21;77.27;100779.81;5043103;28;45520;-73
2021/10/20 08:24:49;;;;;;;;;17.00;15.25;;;;;17.21;77.18;100787.78;5045530;28;48560;-73
2021/10/20 08:27:15;;;;;;;;;22.25;17.00;;;;;17.21;76.67;100787.78;5047120;28;45834;-74
2021/10/20 08:29:40;;;;;;;;;13.75;13.00;;;;;17.29;77.66;100803.19;5037009;28;45898;-73
2021/10/20 08:32:07;;;;;;;;;15.25;14.75;;;;;17.36;76.95;100809.78;5034620;28;45460;-73
2021/10/20 08:34:33;;;;;;;;;17.50;13.50;;;;;17.38;77.50;100808.72;5038525;28;45402;-73
2021/10/20 08:36:58;;;;;;;;;17.50;16.50;;;;;17.43;77.39;100806.56;5049588;28;45425;-73
2021/10/20 08:39:23;;;;;;;;;19.25;18.25;;;;;17.54;77.37;100807.63;5034287;28;45339;-73
2021/10/20 08:41:49;;;;;;;;;14.00;14.00;;;;;17.50;76.47;100790.22;5040300;28;45524;-73
2021/10/20 08:44:15;;;;;;;;;16.75;14.75;;;;;17.58;77.13;100809.94;5033733;28;45520;-73
2021/10/20 08:46:41;;;;;;;;;14.75;12.00;;;;;17.62;77.13;100805.28;5049296;28;45395;-73
2021/10/20 08:49:09;;;;;;;;;16.50;15.25;;;;;17.64;76.84;100788.25;5037751;28;45439;-73
2021/10/20 08:51:35;;;;;;;;;22.00;17.00;;;;;17.76;76.81;100793.69;5036900;28;45932;-73
2021/10/20 08:54:00;;;;;;;;;13.75;13.75;;;;;17.83;76.52;100803.75;5038569;28;45454;-73
2021/10/20 08:56:26;;;;;;;;;20.75;17.25;;;;;17.80;77.24;100800.47;5045316;28;45535;-74
2021/10/20 08:58:52;;;;;;;;;15.00;13.00;;;;;17.86;76.43;100802.72;5032910;28;46197;-73
2021/10/20 09:01:18;;;;;;;;;17.25;13.50;;;;;17.85;76.72;100807.16;5050180;28;45687;-73
2021/10/20 09:03:44;;;;;;;;;15.00;13.00;;;;;17.88;76.29;100814.91;5037704;28;45533;-73
2021/10/20 09:06:10;;;;;;;;;21.00;15.75;;;;;17.88;76.73;100811.41;5036731;28;45335;-73
2021/10/20 09:08:40;;;;;;;;;18.75;16.25;;;;;17.90;76.47;100820.13;5036852;28;45539;-73
2021/10/20 09:11:34;;;;;;;;;17.00;16.00;;;;;17.91;77.17;100820.03;5036116;28;45383;-73
2021/10/20 09:14:01;;;;;;;;;17.75;15.00;;;;;17.92;76.51;100811.09;5026790;28;45447;-73
2021/10/20 09:16:27;;;;;;;;;19.75;17.50;;;;;17.91;76.75;100809.38;5033266;28;45411;-73
2021/10/20 09:18:52;;;;;;;;;17.00;16.00;;;;;17.89;76.86;100815.75;5043040;28;46326;-71
2021/10/20 09:21:18;;;;;;;;;16.25;15.50;;;;;17.88;76.80;100803.44;5045452;28;45612;-73
2021/10/20 09:23:43;;;;;;;;;17.50;16.75;;;;;17.89;77.69;100808.63;5047716;28;45484;-71
2021/10/20 09:26:09;;;;;;;;;19.25;17.00;;;;;17.86;78.00;100794.72;5038838;28;45502;-71
2021/10/20 09:28:37;;;;;;;;;19.25;16.25;;;;;17.92;80.17;100802.25;5031024;28;46013;-70
2021/10/20 09:31:05;;;;;;;;;17.50;16.25;;;;;17.86;78.43;100784.94;5043937;28;45470;-71
2021/10/20 09:33:35;;;;;;;;;17.25;16.00;;;;;17.94;78.20;100801.16;5019082;28;45610;-71
2021/10/20 09:36:03;;;;;;;;;21.00;19.25;;;;;17.98;79.10;100788.50;5014933;28;45556;-71
2021/10/20 09:38:33;;;;;;;;;24.00;21.75;;;;;18.02;78.33;100791.81;5039788;28;47870;-71
2021/10/20 09:41:04;;;;;;;;;23.50;20.00;;;;;18.08;78.27;100788.69;5038336;28;45780;-71
2021/10/20 09:43:29;;;;;;;;;19.75;18.00;;;;;18.16;78.23;100787.16;5042926;28;45437;-71
2021/10/20 09:45:54;;;;;;;;;15.75;14.75;;;;;18.23;77.97;100787.56;5034527;28;45460;-71
2021/10/20 09:48:22;;;;;;;;;19.75;18.75;;;;;18.31;77.96;100787.81;5034391;28;45461;-71
2021/10/20 09:51:08;;;;;;;;;20.25;16.75;;;;;18.41;77.44;100772.88;5033660;28;45774;-72
2021/10/20 09:53:44;;;;;;;;;19.50;17.75;;;;;18.56;77.45;100784.19;5033937;28;45526;-71
2021/10/20 09:56:30;;;;;;;;;19.00;16.00;;;;;18.70;77.09;100791.16;5034119;28;45458;-71
2021/10/20 09:58:56;;;;;;;;;21.50;17.25;;;;;18.72;76.96;100786.56;5021774;28;45538;-71
2021/10/20 10:01:25;;;;;;;;;22.00;20.00;;;;;18.76;77.17;100801.34;5034313;28;45297;-71
2021/10/20 10:03:52;;;;;;;;;22.00;18.50;;;;;18.82;76.70;100786.72;5034534;28;45713;-70
2021/10/20 10:06:19;;;;;;;;;22.75;18.75;;;;;18.85;76.41;100787.34;5033927;28;45473;-70
2021/10/20 10:08:45;;;;;;;;;40.00;33.00;;;;;18.87;76.58;100781.88;5033592;28;45439;-72
2021/10/20 10:11:10;;;;;;;;;17.75;17.25;;;;;18.93;77.00;100771.59;5033875;28;45571;-70
2021/10/20 10:13:45;;;;;;;;;22.50;17.75;;;;;18.99;76.27;100775.59;5033806;28;45415;-71
2021/10/20 10:16:11;;;;;;;;;16.00;16.00;;;;;18.90;76.04;100747.88;5031697;28;45592;-70
2021/10/20 10:18:39;;;;;;;;;18.25;15.75;;;;;19.01;76.40;100760.38;5034713;28;45461;-71
2021/10/20 10:21:32;;;;;;;;;18.00;15.75;;;;;19.03;76.23;100761.06;5035014;28;45729;-70
2021/10/20 10:24:00;;;;;;;;;19.00;18.75;;;;;19.02;75.81;100762.06;5030071;28;45419;-70
2021/10/20 10:26:26;;;;;;;;;19.00;15.25;;;;;19.02;76.37;100762.91;5033879;28;45580;-71
2021/10/20 10:29:12;;;;;;;;;17.75;16.25;;;;;19.04;76.62;100760.09;5034098;28;45702;-70
2021/10/20 10:31:42;;;;;;;;;20.25;18.25;;;;;19.03;76.45;100758.41;5034223;28;45842;-70
2021/10/20 10:34:17;;;;;;;;;18.00;15.50;;;;;19.04;76.55;100754.78;5027032;28;45656;-71
2021/10/20 10:36:54;;;;;;;;;17.00;12.50;;;;;18.98;76.13;100748.13;5033808;28;45625;-71
2021/10/20 10:39:20;;;;;;;;;20.00;16.25;;;;;18.98;76.47;100739.28;5032721;28;45992;-71
2021/10/20 10:41:48;;;;;;;;;15.75;14.00;;;;;19.09;76.45;100757.09;5027888;28;45507;-71
2021/10/20 10:44:24;;;;;;;;;13.75;13.75;;;;;19.10;75.92;100753.44;5031087;28;45506;-70
2021/10/20 10:47:02;;;;;;;;;14.50;14.50;;;;;19.13;76.59;100754.06;5030566;28;45556;-70
2021/10/20 10:49:29;;;;;;;;;19.00;15.00;;;;;19.23;76.67;100754.19;5030149;28;45542;-71
2021/10/20 10:52:03;;;;;;;;;16.50;15.50;;;;;19.28;76.10;100752.00;5029833;28;46068;-71
2021/10/20 10:54:39;;;;;;;;;17.25;16.25;;;;;19.23;75.82;100738.22;5031042;28;45376;-70
2021/10/20 10:57:12;;;;;;;;;14.50;13.25;;;;;19.49;76.11;100720.97;5031238;28;45418;-70
2021/10/20 10:59:37;;;;;;;;;12.50;10.00;;;;;19.55;75.24;100703.66;5031134;28;45439;-70
2021/10/20 11:02:02;;;;;;;;;13.75;12.75;;;;;19.79;74.88;100727.50;5030615;28;45462;-71
2021/10/20 11:04:35;;;;;;;;;17.50;14.25;;;;;19.92;74.70;100714.84;5030695;28;45576;-71
2021/10/20 11:07:03;;;;;;;;;16.50;15.00;;;;;20.03;74.35;100693.47;5032055;28;45347;-70
2021/10/20 11:09:32;;;;;;;;;15.25;12.75;;;;;20.27;73.83;100679.91;5029505;28;45550;-70